sensor_id;sensor_type;location;lat;lon;timestamp;temperature;humidity
31113;DHT22;17763;48.730;9.136;2023-04-26T00:01:54;6.50;99.90
31113;DHT22;17763;48.730;9.136;2023-04-26T00:04:22;6.50;99.90
31113;DHT22;17763;48.730;9.136;2023-04-26T00:06:47;6.50;99.90
31113;DHT22;17763;48.730;9.136;2023-04-26T00:09:13;6.50;99.90
31113;DHT22;17763;48.730;9.136;2023-04-26T00:11:42;6.50;99.90
31113;DHT22;17763;48.730;9.136;2023-04-26T00:14:10;6.50;99.90
31113;DHT22;17763;48.730;9.136;2023-04-26T00:16:36;6.50;99.90
31113;DHT22;17763;48.730;9.136;2023-04-26T00:19:02;6.50;99.90
31113;DHT22;17763;48.730;9.136;2023-04-26T00:21:28;6.40;99.90
31113;DHT22;17763;48.730;9.136;2023-04-26T00:23:54;6.40;99.90
31113;DHT22;17763;48.730;9.136;2023-04-26T00:26:20;6.40;99.90
31113;DHT22;17763;48.730;9.136;2023-04-26T00:28:45;6.40;99.90
31113;DHT22;17763;48.730;9.136;2023-04-26T00:31:14;6.30;99.90
31113;DHT22;17763;48.730;9.136;2023-04-26T00:33:40;6.30;99.90
31113;DHT22;17763;48.730;9.136;2023-04-26T00:36:06;6.30;99.90
31113;DHT22;17763;48.730;9.136;2023-04-26T00:38:32;6.30;99.90
31113;DHT22;17763;48.730;9.136;2023-04-26T00:40:57;6.30;99.90
31113;DHT22;17763;48.730;9.136;2023-04-26T00:43:23;6.30;99.90
31113;DHT22;17763;48.730;9.136;2023-04-26T00:45:49;6.20;99.90
31113;DHT22;17763;48.730;9.136;2023-04-26T00:48:14;6.20;99.90
31113;DHT22;17763;48.730;9.136;2023-04-26T00:50:40;6.20;99.90
31113;DHT22;17763;48.730;9.136;2023-04-26T00:53:06;6.10;99.90
31113;DHT22;17763;48.730;9.136;2023-04-26T00:55:32;6.10;99.90
31113;DHT22;17763;48.730;9.136;2023-04-26T00:57:58;6.00;99.90
31113;DHT22;17763;48.730;9.136;2023-04-26T01:00:24;6.00;99.90
31113;DHT22;17763;48.730;9.136;2023-04-26T01:02:50;6.00;99.90
31113;DHT22;17763;48.730;9.136;2023-04-26T01:05:16;6.00;99.90
31113;DHT22;17763;48.730;9.136;2023-04-26T01:07:41;5.90;99.90
31113;DHT22;17763;48.730;9.136;2023-04-26T01:10:08;5.90;99.90
31113;DHT22;17763;48.730;9.136;2023-04-26T01:12:34;5.90;99.90
31113;DHT22;17763;48.730;9.136;2023-04-26T01:15:00;5.90;99.90
31113;DHT22;17763;48.730;9.136;2023-04-26T01:17:26;5.90;99.90
31113;DHT22;17763;48.730;9.136;2023-04-26T01:19:52;5.90;99.90
31113;DHT22;17763;48.730;9.136;2023-04-26T01:22:18;5.80;99.90
31113;DHT22;17763;48.730;9.136;2023-04-26T01:24:44;5.80;99.90
31113;DHT22;17763;48.730;9.136;2023-04-26T01:27:10;5.80;99.90
31113;DHT22;17763;48.730;9.136;2023-04-26T01:29:36;5.80;99.90
31113;DHT22;17763;48.730;9.136;2023-04-26T01:32:02;5.80;99.90
31113;DHT22;17763;48.730;9.136;2023-04-26T01:34:28;5.70;99.90
31113;DHT22;17763;48.730;9.136;2023-04-26T01:36:53;5.70;99.90
31113;DHT22;17763;48.730;9.136;2023-04-26T01:39:19;5.70;99.90
31113;DHT22;17763;48.730;9.136;2023-04-26T01:41:44;5.70;99.90
31113;DHT22;17763;48.730;9.136;2023-04-26T01:44:10;5.70;99.90
31113;DHT22;17763;48.730;9.136;2023-04-26T01:46:36;5.60;99.90
31113;DHT22;17763;48.730;9.136;2023-04-26T01:49:01;5.60;99.90
31113;DHT22;17763;48.730;9.136;2023-04-26T01:51:27;5.60;99.90
31113;DHT22;17763;48.730;9.136;2023-04-26T01:53:53;5.60;99.90
31113;DHT22;17763;48.730;9.136;2023-04-26T01:56:20;5.50;99.90
31113;DHT22;17763;48.730;9.136;2023-04-26T01:58:45;5.50;99.90
31113;DHT22;17763;48.730;9.136;2023-04-26T02:01:11;5.40;99.90
31113;DHT22;17763;48.730;9.136;2023-04-26T02:03:37;5.40;99.90
31113;DHT22;17763;48.730;9.136;2023-04-26T02:06:03;5.40;99.90
31113;DHT22;17763;48.730;9.136;2023-04-26T02:08:28;5.40;99.90
31113;DHT22;17763;48.730;9.136;2023-04-26T02:10:54;5.40;99.90
31113;DHT22;17763;48.730;9.136;2023-04-26T02:13:20;5.40;99.90
31113;DHT22;17763;48.730;9.136;2023-04-26T02:15:46;5.30;99.90
31113;DHT22;17763;48.730;9.136;2023-04-26T02:18:12;5.20;99.90
31113;DHT22;17763;48.730;9.136;2023-04-26T02:20:41;5.20;99.90
31113;DHT22;17763;48.730;9.136;2023-04-26T02:23:10;5.20;99.90
31113;DHT22;17763;48.730;9.136;2023-04-26T02:25:36;5.20;99.90
31113;DHT22;17763;48.730;9.136;2023-04-26T02:28:02;5.10;99.90
31113;DHT22;17763;48.730;9.136;2023-04-26T02:30:27;5.10;99.90
31113;DHT22;17763;48.730;9.136;2023-04-26T02:32:53;5.20;99.90
31113;DHT22;17763;48.730;9.136;2023-04-26T02:35:21;5.10;99.90
31113;DHT22;17763;48.730;9.136;2023-04-26T02:37:47;5.10;99.90
31113;DHT22;17763;48.730;9.136;2023-04-26T02:40:13;5.20;99.90
31113;DHT22;17763;48.730;9.136;2023-04-26T02:42:39;5.20;99.90
31113;DHT22;17763;48.730;9.136;2023-04-26T02:45:05;5.20;99.90
31113;DHT22;17763;48.730;9.136;2023-04-26T02:47:31;5.30;99.90
31113;DHT22;17763;48.730;9.136;2023-04-26T02:49:57;5.20;99.90
31113;DHT22;17763;48.730;9.136;2023-04-26T02:52:25;5.20;99.90
31113;DHT22;17763;48.730;9.136;2023-04-26T02:54:51;5.30;99.90
31113;DHT22;17763;48.730;9.136;2023-04-26T02:57:16;5.30;99.90
31113;DHT22;17763;48.730;9.136;2023-04-26T02:59:42;5.30;99.90
31113;DHT22;17763;48.730;9.136;2023-04-26T03:02:08;5.30;99.90
31113;DHT22;17763;48.730;9.136;2023-04-26T03:04:33;5.50;99.90
31113;DHT22;17763;48.730;9.136;2023-04-26T03:07:03;5.30;99.90
31113;DHT22;17763;48.730;9.136;2023-04-26T03:09:29;5.30;99.90
31113;DHT22;17763;48.730;9.136;2023-04-26T03:11:55;5.30;99.90
31113;DHT22;17763;48.730;9.136;2023-04-26T03:14:21;5.30;99.90
31113;DHT22;17763;48.730;9.136;2023-04-26T03:16:46;5.40;99.90
31113;DHT22;17763;48.730;9.136;2023-04-26T03:19:15;5.40;99.90
31113;DHT22;17763;48.730;9.136;2023-04-26T03:21:41;5.40;99.90
31113;DHT22;17763;48.730;9.136;2023-04-26T03:24:07;5.40;99.90
31113;DHT22;17763;48.730;9.136;2023-04-26T03:26:32;5.40;99.90
31113;DHT22;17763;48.730;9.136;2023-04-26T03:28:58;5.40;99.90
31113;DHT22;17763;48.730;9.136;2023-04-26T03:31:24;5.40;99.90
31113;DHT22;17763;48.730;9.136;2023-04-26T03:33:52;5.40;99.90
31113;DHT22;17763;48.730;9.136;2023-04-26T03:36:20;5.40;99.90
31113;DHT22;17763;48.730;9.136;2023-04-26T03:38:48;5.40;99.90
31113;DHT22;17763;48.730;9.136;2023-04-26T03:41:14;5.40;99.90
31113;DHT22;17763;48.730;9.136;2023-04-26T03:43:39;5.30;99.90
31113;DHT22;17763;48.730;9.136;2023-04-26T03:46:05;5.30;99.90
31113;DHT22;17763;48.730;9.136;2023-04-26T03:48:31;5.20;99.90
31113;DHT22;17763;48.730;9.136;2023-04-26T03:50:56;5.20;99.90
31113;DHT22;17763;48.730;9.136;2023-04-26T03:53:22;5.10;99.90
31113;DHT22;17763;48.730;9.136;2023-04-26T03:55:48;5.10;99.90
31113;DHT22;17763;48.730;9.136;2023-04-26T03:58:13;5.10;99.90
31113;DHT22;17763;48.730;9.136;2023-04-26T04:00:41;5.00;99.90
31113;DHT22;17763;48.730;9.136;2023-04-26T04:03:10;5.10;99.90
31113;DHT22;17763;48.730;9.136;2023-04-26T04:05:36;5.00;99.90
31113;DHT22;17763;48.730;9.136;2023-04-26T04:08:02;4.90;99.90
31113;DHT22;17763;48.730;9.136;2023-04-26T04:10:28;4.90;99.90
31113;DHT22;17763;48.730;9.136;2023-04-26T04:12:53;4.90;99.90
31113;DHT22;17763;48.730;9.136;2023-04-26T04:15:19;4.80;99.90
31113;DHT22;17763;48.730;9.136;2023-04-26T04:17:45;4.80;99.90
31113;DHT22;17763;48.730;9.136;2023-04-26T04:20:11;4.80;99.90
31113;DHT22;17763;48.730;9.136;2023-04-26T04:22:37;4.90;99.90
31113;DHT22;17763;48.730;9.136;2023-04-26T04:25:06;4.80;99.90
31113;DHT22;17763;48.730;9.136;2023-04-26T04:27:31;4.80;99.90
31113;DHT22;17763;48.730;9.136;2023-04-26T04:29:57;4.80;99.90
31113;DHT22;17763;48.730;9.136;2023-04-26T04:32:23;4.80;99.90
31113;DHT22;17763;48.730;9.136;2023-04-26T04:34:49;4.80;99.90
31113;DHT22;17763;48.730;9.136;2023-04-26T04:37:16;4.90;99.90
31113;DHT22;17763;48.730;9.136;2023-04-26T04:39:42;4.80;99.90
31113;DHT22;17763;48.730;9.136;2023-04-26T04:42:08;4.90;99.90
31113;DHT22;17763;48.730;9.136;2023-04-26T04:44:37;4.80;99.90
31113;DHT22;17763;48.730;9.136;2023-04-26T04:47:02;4.90;99.90
31113;DHT22;17763;48.730;9.136;2023-04-26T04:49:28;4.90;99.90
31113;DHT22;17763;48.730;9.136;2023-04-26T04:51:55;4.90;99.90
31113;DHT22;17763;48.730;9.136;2023-04-26T04:54:21;4.90;99.90
31113;DHT22;17763;48.730;9.136;2023-04-26T04:56:47;4.90;99.90
31113;DHT22;17763;48.730;9.136;2023-04-26T04:59:13;4.90;99.90
31113;DHT22;17763;48.730;9.136;2023-04-26T05:01:38;5.00;99.90
31113;DHT22;17763;48.730;9.136;2023-04-26T05:04:04;5.00;99.90
31113;DHT22;17763;48.730;9.136;2023-04-26T05:06:30;5.10;99.90
31113;DHT22;17763;48.730;9.136;2023-04-26T05:08:56;5.10;99.90
31113;DHT22;17763;48.730;9.136;2023-04-26T05:11:22;5.20;99.90
31113;DHT22;17763;48.730;9.136;2023-04-26T05:13:48;5.20;99.90
31113;DHT22;17763;48.730;9.136;2023-04-26T05:16:13;5.30;99.90
31113;DHT22;17763;48.730;9.136;2023-04-26T05:18:39;5.30;99.90
31113;DHT22;17763;48.730;9.136;2023-04-26T05:21:05;5.40;99.90
31113;DHT22;17763;48.730;9.136;2023-04-26T05:23:30;5.40;99.90
31113;DHT22;17763;48.730;9.136;2023-04-26T05:25:59;5.50;99.90
31113;DHT22;17763;48.730;9.136;2023-04-26T05:28:25;5.50;99.90
31113;DHT22;17763;48.730;9.136;2023-04-26T05:30:51;5.50;99.90
31113;DHT22;17763;48.730;9.136;2023-04-26T05:33:16;5.50;99.90
31113;DHT22;17763;48.730;9.136;2023-04-26T05:35:42;5.50;99.90
31113;DHT22;17763;48.730;9.136;2023-04-26T05:38:08;5.40;99.90
31113;DHT22;17763;48.730;9.136;2023-04-26T05:40:36;5.40;99.90
31113;DHT22;17763;48.730;9.136;2023-04-26T05:43:02;5.50;99.90
31113;DHT22;17763;48.730;9.136;2023-04-26T05:45:28;5.40;99.90
31113;DHT22;17763;48.730;9.136;2023-04-26T05:47:53;5.50;99.90
31113;DHT22;17763;48.730;9.136;2023-04-26T05:50:19;5.60;99.90
31113;DHT22;17763;48.730;9.136;2023-04-26T05:52:45;5.60;99.90
31113;DHT22;17763;48.730;9.136;2023-04-26T05:55:10;5.60;99.90
31113;DHT22;17763;48.730;9.136;2023-04-26T05:57:37;5.60;99.90
31113;DHT22;17763;48.730;9.136;2023-04-26T06:00:03;5.60;99.90
31113;DHT22;17763;48.730;9.136;2023-04-26T06:02:29;5.60;99.90
31113;DHT22;17763;48.730;9.136;2023-04-26T06:04:55;5.50;99.90
31113;DHT22;17763;48.730;9.136;2023-04-26T06:07:21;5.50;99.90
31113;DHT22;17763;48.730;9.136;2023-04-26T06:09:47;5.50;99.90
31113;DHT22;17763;48.730;9.136;2023-04-26T06:12:12;5.60;99.90
31113;DHT22;17763;48.730;9.136;2023-04-26T06:14:38;5.60;99.90
31113;DHT22;17763;48.730;9.136;2023-04-26T06:17:03;5.60;99.90
31113;DHT22;17763;48.730;9.136;2023-04-26T06:19:32;5.60;99.90
31113;DHT22;17763;48.730;9.136;2023-04-26T06:21:58;5.60;99.90
31113;DHT22;17763;48.730;9.136;2023-04-26T06:24:23;5.60;99.90
31113;DHT22;17763;48.730;9.136;2023-04-26T06:26:50;5.70;99.90
31113;DHT22;17763;48.730;9.136;2023-04-26T06:29:16;5.70;99.90
31113;DHT22;17763;48.730;9.136;2023-04-26T06:31:42;5.80;99.90
31113;DHT22;17763;48.730;9.136;2023-04-26T06:34:10;5.80;99.90
31113;DHT22;17763;48.730;9.136;2023-04-26T06:36:38;5.80;99.90
31113;DHT22;17763;48.730;9.136;2023-04-26T06:39:04;5.90;99.90
31113;DHT22;17763;48.730;9.136;2023-04-26T06:41:29;5.90;99.90
31113;DHT22;17763;48.730;9.136;2023-04-26T06:43:55;6.00;99.90
31113;DHT22;17763;48.730;9.136;2023-04-26T06:46:21;6.10;99.90
31113;DHT22;17763;48.730;9.136;2023-04-26T06:48:46;6.10;99.90
31113;DHT22;17763;48.730;9.136;2023-04-26T06:51:12;6.10;99.90
31113;DHT22;17763;48.730;9.136;2023-04-26T06:53:38;6.20;99.90
31113;DHT22;17763;48.730;9.136;2023-04-26T06:56:03;6.20;99.90
31113;DHT22;17763;48.730;9.136;2023-04-26T06:58:29;6.30;99.90
31113;DHT22;17763;48.730;9.136;2023-04-26T07:00:55;6.20;99.90
31113;DHT22;17763;48.730;9.136;2023-04-26T07:03:20;6.20;99.90
31113;DHT22;17763;48.730;9.136;2023-04-26T07:05:46;6.30;99.90
31113;DHT22;17763;48.730;9.136;2023-04-26T07:08:12;6.30;99.90
31113;DHT22;17763;48.730;9.136;2023-04-26T07:10:39;6.30;99.90
31113;DHT22;17763;48.730;9.136;2023-04-26T07:13:05;6.40;99.90
31113;DHT22;17763;48.730;9.136;2023-04-26T07:15:31;6.40;99.90
31113;DHT22;17763;48.730;9.136;2023-04-26T07:17:57;6.50;99.90
31113;DHT22;17763;48.730;9.136;2023-04-26T07:20:23;6.60;99.90
31113;DHT22;17763;48.730;9.136;2023-04-26T07:22:49;6.70;99.90
31113;DHT22;17763;48.730;9.136;2023-04-26T07:25:15;6.70;99.90
31113;DHT22;17763;48.730;9.136;2023-04-26T07:27:41;6.70;99.90
31113;DHT22;17763;48.730;9.136;2023-04-26T07:30:07;6.70;99.90
31113;DHT22;17763;48.730;9.136;2023-04-26T07:32:32;6.70;99.90
31113;DHT22;17763;48.730;9.136;2023-04-26T07:34:58;6.70;99.90
31113;DHT22;17763;48.730;9.136;2023-04-26T07:37:24;6.70;99.90
31113;DHT22;17763;48.730;9.136;2023-04-26T07:39:49;6.70;99.90
31113;DHT22;17763;48.730;9.136;2023-04-26T07:42:15;6.70;99.90
31113;DHT22;17763;48.730;9.136;2023-04-26T07:44:41;6.80;99.90
31113;DHT22;17763;48.730;9.136;2023-04-26T07:47:12;6.90;99.90
31113;DHT22;17763;48.730;9.136;2023-04-26T07:49:38;7.00;99.90
31113;DHT22;17763;48.730;9.136;2023-04-26T07:52:04;7.10;99.90
31113;DHT22;17763;48.730;9.136;2023-04-26T07:54:29;7.20;99.90
31113;DHT22;17763;48.730;9.136;2023-04-26T07:56:55;7.30;99.90
31113;DHT22;17763;48.730;9.136;2023-04-26T07:59:21;7.40;99.90
31113;DHT22;17763;48.730;9.136;2023-04-26T08:01:47;7.60;99.90
31113;DHT22;17763;48.730;9.136;2023-04-26T08:04:13;7.80;99.90
31113;DHT22;17763;48.730;9.136;2023-04-26T08:06:39;8.10;99.90
31113;DHT22;17763;48.730;9.136;2023-04-26T08:09:09;8.20;99.90
31113;DHT22;17763;48.730;9.136;2023-04-26T08:11:35;8.30;99.90
31113;DHT22;17763;48.730;9.136;2023-04-26T08:14:01;8.40;99.70
31113;DHT22;17763;48.730;9.136;2023-04-26T08:16:27;8.50;98.90
31113;DHT22;17763;48.730;9.136;2023-04-26T08:18:53;8.70;96.90
31113;DHT22;17763;48.730;9.136;2023-04-26T08:21:19;8.60;95.30
31113;DHT22;17763;48.730;9.136;2023-04-26T08:23:45;8.60;95.40
31113;DHT22;17763;48.730;9.136;2023-04-26T08:26:11;8.50;96.50
31113;DHT22;17763;48.730;9.136;2023-04-26T08:28:36;8.50;96.40
31113;DHT22;17763;48.730;9.136;2023-04-26T08:31:02;8.40;96.90
31113;DHT22;17763;48.730;9.136;2023-04-26T08:33:28;8.60;97.60
31113;DHT22;17763;48.730;9.136;2023-04-26T08:35:54;8.70;96.70
31113;DHT22;17763;48.730;9.136;2023-04-26T08:38:19;9.00;96.20
31113;DHT22;17763;48.730;9.136;2023-04-26T08:40:46;9.30;95.80
31113;DHT22;17763;48.730;9.136;2023-04-26T08:43:12;9.50;95.00
31113;DHT22;17763;48.730;9.136;2023-04-26T08:45:39;9.40;94.50
31113;DHT22;17763;48.730;9.136;2023-04-26T08:48:05;9.20;94.40
31113;DHT22;17763;48.730;9.136;2023-04-26T08:50:33;8.80;93.90
31113;DHT22;17763;48.730;9.136;2023-04-26T08:53:01;8.60;94.50
31113;DHT22;17763;48.730;9.136;2023-04-26T08:55:26;8.60;96.00
31113;DHT22;17763;48.730;9.136;2023-04-26T08:57:52;8.50;94.90
31113;DHT22;17763;48.730;9.136;2023-04-26T09:00:18;8.50;96.10
31113;DHT22;17763;48.730;9.136;2023-04-26T09:02:51;8.30;95.00
31113;DHT22;17763;48.730;9.136;2023-04-26T09:05:17;8.20;95.20
31113;DHT22;17763;48.730;9.136;2023-04-26T09:07:47;8.10;94.50
31113;DHT22;17763;48.730;9.136;2023-04-26T09:10:17;8.20;95.60
31113;DHT22;17763;48.730;9.136;2023-04-26T09:12:44;8.20;95.00
31113;DHT22;17763;48.730;9.136;2023-04-26T09:15:09;8.20;95.20
31113;DHT22;17763;48.730;9.136;2023-04-26T09:17:36;8.30;95.90
31113;DHT22;17763;48.730;9.136;2023-04-26T09:22:47;8.60;95.40
31113;DHT22;17763;48.730;9.136;2023-04-26T09:25:13;8.60;94.80
31113;DHT22;17763;48.730;9.136;2023-04-26T09:27:40;8.70;94.20
31113;DHT22;17763;48.730;9.136;2023-04-26T09:35:35;9.00;93.50
31113;DHT22;17763;48.730;9.136;2023-04-26T09:38:07;9.20;93.70
31113;DHT22;17763;48.730;9.136;2023-04-26T09:40:34;9.20;93.10
31113;DHT22;17763;48.730;9.136;2023-04-26T09:43:13;9.30;92.20
31113;DHT22;17763;48.730;9.136;2023-04-26T09:48:15;9.20;91.40
31113;DHT22;17763;48.730;9.136;2023-04-26T09:50:46;9.30;91.10
31113;DHT22;17763;48.730;9.136;2023-04-26T09:53:31;9.40;90.90
31113;DHT22;17763;48.730;9.136;2023-04-26T09:56:20;9.50;91.60
31113;DHT22;17763;48.730;9.136;2023-04-26T10:01:15;9.70;88.80
31113;DHT22;17763;48.730;9.136;2023-04-26T10:03:42;9.80;90.30
31113;DHT22;17763;48.730;9.136;2023-04-26T10:06:08;9.90;89.60
31113;DHT22;17763;48.730;9.136;2023-04-26T10:08:34;10.00;89.80
31113;DHT22;17763;48.730;9.136;2023-04-26T10:11:02;10.20;87.80
31113;DHT22;17763;48.730;9.136;2023-04-26T10:13:30;10.40;89.00
31113;DHT22;17763;48.730;9.136;2023-04-26T10:15:56;10.60;87.10
31113;DHT22;17763;48.730;9.136;2023-04-26T10:18:22;10.60;82.90
31113;DHT22;17763;48.730;9.136;2023-04-26T10:20:50;10.40;82.90
31113;DHT22;17763;48.730;9.136;2023-04-26T10:23:18;10.20;81.80
31113;DHT22;17763;48.730;9.136;2023-04-26T10:25:47;10.20;82.10
31113;DHT22;17763;48.730;9.136;2023-04-26T10:28:14;10.20;82.30
31113;DHT22;17763;48.730;9.136;2023-04-26T10:30:53;10.40;82.90
31113;DHT22;17763;48.730;9.136;2023-04-26T10:33:18;10.60;81.60
31113;DHT22;17763;48.730;9.136;2023-04-26T10:38:29;10.50;80.50
31113;DHT22;17763;48.730;9.136;2023-04-26T10:43:48;10.10;80.30
31113;DHT22;17763;48.730;9.136;2023-04-26T10:48:58;10.00;78.60
31113;DHT22;17763;48.730;9.136;2023-04-26T10:51:23;10.20;77.60
31113;DHT22;17763;48.730;9.136;2023-04-26T10:58:48;10.40;76.40
31113;DHT22;17763;48.730;9.136;2023-04-26T11:03:41;10.70;78.90
31113;DHT22;17763;48.730;9.136;2023-04-26T11:06:10;10.90;79.30
31113;DHT22;17763;48.730;9.136;2023-04-26T11:08:39;11.20;77.50
31113;DHT22;17763;48.730;9.136;2023-04-26T11:11:06;11.40;76.50
31113;DHT22;17763;48.730;9.136;2023-04-26T11:13:35;11.50;74.80
31113;DHT22;17763;48.730;9.136;2023-04-26T11:16:04;11.60;74.60
31113;DHT22;17763;48.730;9.136;2023-04-26T11:18:30;11.50;73.10
31113;DHT22;17763;48.730;9.136;2023-04-26T11:20:56;11.50;70.80
31113;DHT22;17763;48.730;9.136;2023-04-26T11:23:22;11.40;70.90
31113;DHT22;17763;48.730;9.136;2023-04-26T11:25:48;11.30;72.20
31113;DHT22;17763;48.730;9.136;2023-04-26T11:28:14;11.40;72.90
31113;DHT22;17763;48.730;9.136;2023-04-26T11:30:40;11.50;72.90
31113;DHT22;17763;48.730;9.136;2023-04-26T11:33:05;11.40;71.50
31113;DHT22;17763;48.730;9.136;2023-04-26T11:35:32;11.50;73.10
31113;DHT22;17763;48.730;9.136;2023-04-26T11:37:58;11.70;70.40
31113;DHT22;17763;48.730;9.136;2023-04-26T11:40:31;11.50;69.80
31113;DHT22;17763;48.730;9.136;2023-04-26T11:43:00;11.50;69.00
31113;DHT22;17763;48.730;9.136;2023-04-26T11:45:27;11.40;69.30
31113;DHT22;17763;48.730;9.136;2023-04-26T11:47:52;11.50;70.20
31113;DHT22;17763;48.730;9.136;2023-04-26T11:50:18;11.50;69.00
31113;DHT22;17763;48.730;9.136;2023-04-26T11:52:52;11.40;71.20
31113;DHT22;17763;48.730;9.136;2023-04-26T11:55:21;11.30;70.50
31113;DHT22;17763;48.730;9.136;2023-04-26T11:57:49;11.40;76.40
31113;DHT22;17763;48.730;9.136;2023-04-26T12:00:15;11.30;69.80
31113;DHT22;17763;48.730;9.136;2023-04-26T12:02:44;11.40;70.70
31113;DHT22;17763;48.730;9.136;2023-04-26T12:05:20;11.30;70.20
31113;DHT22;17763;48.730;9.136;2023-04-26T12:07:50;11.50;70.80
31113;DHT22;17763;48.730;9.136;2023-04-26T12:10:19;11.60;71.40
31113;DHT22;17763;48.730;9.136;2023-04-26T12:12:49;11.80;70.40
31113;DHT22;17763;48.730;9.136;2023-04-26T12:15:21;11.80;70.20
31113;DHT22;17763;48.730;9.136;2023-04-26T12:20:24;11.80;68.20
31113;DHT22;17763;48.730;9.136;2023-04-26T12:22:57;11.90;68.10
31113;DHT22;17763;48.730;9.136;2023-04-26T12:25:24;12.00;66.90
31113;DHT22;17763;48.730;9.136;2023-04-26T12:27:49;12.10;68.70
31113;DHT22;17763;48.730;9.136;2023-04-26T12:30:15;12.30;68.00
31113;DHT22;17763;48.730;9.136;2023-04-26T12:32:41;12.50;68.90
31113;DHT22;17763;48.730;9.136;2023-04-26T12:35:06;12.70;70.10
31113;DHT22;17763;48.730;9.136;2023-04-26T12:37:32;12.90;68.60
31113;DHT22;17763;48.730;9.136;2023-04-26T12:39:58;13.10;66.80
31113;DHT22;17763;48.730;9.136;2023-04-26T12:42:24;13.20;65.80
31113;DHT22;17763;48.730;9.136;2023-04-26T12:44:49;13.30;64.90
31113;DHT22;17763;48.730;9.136;2023-04-26T12:47:15;13.50;66.80
31113;DHT22;17763;48.730;9.136;2023-04-26T12:49:40;13.60;64.90
31113;DHT22;17763;48.730;9.136;2023-04-26T12:52:06;13.80;63.30
31113;DHT22;17763;48.730;9.136;2023-04-26T12:54:32;13.80;62.60
31113;DHT22;17763;48.730;9.136;2023-04-26T12:56:57;13.80;64.10
31113;DHT22;17763;48.730;9.136;2023-04-26T12:59:23;13.70;61.80
31113;DHT22;17763;48.730;9.136;2023-04-26T13:01:48;13.50;61.10
31113;DHT22;17763;48.730;9.136;2023-04-26T13:04:14;13.40;61.70
31113;DHT22;17763;48.730;9.136;2023-04-26T13:06:40;13.40;61.70
31113;DHT22;17763;48.730;9.136;2023-04-26T13:09:06;13.20;61.90
31113;DHT22;17763;48.730;9.136;2023-04-26T13:11:32;13.20;62.00
31113;DHT22;17763;48.730;9.136;2023-04-26T13:13:58;13.10;63.20
31113;DHT22;17763;48.730;9.136;2023-04-26T13:16:26;13.00;64.00
31113;DHT22;17763;48.730;9.136;2023-04-26T13:18:52;12.80;63.40
31113;DHT22;17763;48.730;9.136;2023-04-26T13:21:17;12.70;63.50
31113;DHT22;17763;48.730;9.136;2023-04-26T13:23:43;12.50;63.10
31113;DHT22;17763;48.730;9.136;2023-04-26T13:26:12;12.60;64.30
31113;DHT22;17763;48.730;9.136;2023-04-26T13:28:38;12.60;63.70
31113;DHT22;17763;48.730;9.136;2023-04-26T13:31:04;12.70;62.30
31113;DHT22;17763;48.730;9.136;2023-04-26T13:33:30;12.90;62.70
31113;DHT22;17763;48.730;9.136;2023-04-26T13:35:56;12.90;61.80
31113;DHT22;17763;48.730;9.136;2023-04-26T13:38:22;12.80;62.80
31113;DHT22;17763;48.730;9.136;2023-04-26T13:40:48;12.80;62.40
31113;DHT22;17763;48.730;9.136;2023-04-26T13:43:13;12.90;62.10
31113;DHT22;17763;48.730;9.136;2023-04-26T13:45:39;13.20;62.50
31113;DHT22;17763;48.730;9.136;2023-04-26T13:48:05;13.40;63.10
31113;DHT22;17763;48.730;9.136;2023-04-26T13:50:30;13.30;59.40
31113;DHT22;17763;48.730;9.136;2023-04-26T13:52:56;13.30;60.20
31113;DHT22;17763;48.730;9.136;2023-04-26T13:55:22;13.30;60.90
31113;DHT22;17763;48.730;9.136;2023-04-26T13:57:47;13.20;60.20
31113;DHT22;17763;48.730;9.136;2023-04-26T14:00:15;13.00;60.40
31113;DHT22;17763;48.730;9.136;2023-04-26T14:02:41;12.90;61.00
31113;DHT22;17763;48.730;9.136;2023-04-26T14:05:09;12.80;60.50
31113;DHT22;17763;48.730;9.136;2023-04-26T14:07:35;12.80;61.50
31113;DHT22;17763;48.730;9.136;2023-04-26T14:10:00;12.90;61.80
31113;DHT22;17763;48.730;9.136;2023-04-26T14:12:26;12.80;62.40
31113;DHT22;17763;48.730;9.136;2023-04-26T14:14:51;12.80;62.50
31113;DHT22;17763;48.730;9.136;2023-04-26T14:17:17;12.80;62.80
31113;DHT22;17763;48.730;9.136;2023-04-26T14:19:47;12.90;63.00
31113;DHT22;17763;48.730;9.136;2023-04-26T14:22:13;13.00;61.90
31113;DHT22;17763;48.730;9.136;2023-04-26T14:24:41;13.00;60.80
31113;DHT22;17763;48.730;9.136;2023-04-26T14:27:07;13.00;61.40
31113;DHT22;17763;48.730;9.136;2023-04-26T14:29:33;13.20;62.00
31113;DHT22;17763;48.730;9.136;2023-04-26T14:31:58;13.20;61.10
31113;DHT22;17763;48.730;9.136;2023-04-26T14:34:24;13.10;61.00
31113;DHT22;17763;48.730;9.136;2023-04-26T14:36:50;13.00;60.70
31113;DHT22;17763;48.730;9.136;2023-04-26T14:39:16;13.10;62.00
31113;DHT22;17763;48.730;9.136;2023-04-26T14:41:41;13.00;60.60
31113;DHT22;17763;48.730;9.136;2023-04-26T14:44:07;12.90;61.30
31113;DHT22;17763;48.730;9.136;2023-04-26T14:46:38;13.00;61.90
31113;DHT22;17763;48.730;9.136;2023-04-26T14:49:04;13.00;62.00
31113;DHT22;17763;48.730;9.136;2023-04-26T14:51:30;12.90;61.90
31113;DHT22;17763;48.730;9.136;2023-04-26T14:53:56;12.80;60.30
31113;DHT22;17763;48.730;9.136;2023-04-26T14:56:22;12.80;61.20
31113;DHT22;17763;48.730;9.136;2023-04-26T14:58:48;12.70;62.10
31113;DHT22;17763;48.730;9.136;2023-04-26T15:01:13;12.70;60.90
31113;DHT22;17763;48.730;9.136;2023-04-26T15:03:39;12.60;61.00
31113;DHT22;17763;48.730;9.136;2023-04-26T15:06:06;12.70;61.90
31113;DHT22;17763;48.730;9.136;2023-04-26T15:08:32;12.80;62.10
31113;DHT22;17763;48.730;9.136;2023-04-26T15:11:00;12.90;61.50
31113;DHT22;17763;48.730;9.136;2023-04-26T15:13:28;12.90;61.70
31113;DHT22;17763;48.730;9.136;2023-04-26T15:15:56;12.80;61.00
31113;DHT22;17763;48.730;9.136;2023-04-26T15:18:22;12.70;61.70
31113;DHT22;17763;48.730;9.136;2023-04-26T15:20:48;12.50;61.90
31113;DHT22;17763;48.730;9.136;2023-04-26T15:23:13;12.40;63.10
31113;DHT22;17763;48.730;9.136;2023-04-26T15:25:39;12.40;63.90
31113;DHT22;17763;48.730;9.136;2023-04-26T15:28:05;12.00;64.10
31113;DHT22;17763;48.730;9.136;2023-04-26T15:30:30;11.80;64.00
31113;DHT22;17763;48.730;9.136;2023-04-26T15:32:56;11.80;65.30
31113;DHT22;17763;48.730;9.136;2023-04-26T15:35:22;11.80;64.50
31113;DHT22;17763;48.730;9.136;2023-04-26T15:37:49;11.80;63.80
31113;DHT22;17763;48.730;9.136;2023-04-26T15:40:18;11.90;64.20
31113;DHT22;17763;48.730;9.136;2023-04-26T15:42:43;11.90;64.50
31113;DHT22;17763;48.730;9.136;2023-04-26T15:45:13;11.80;66.10
31113;DHT22;17763;48.730;9.136;2023-04-26T15:47:38;11.90;67.10
31113;DHT22;17763;48.730;9.136;2023-04-26T15:50:04;12.00;66.00
31113;DHT22;17763;48.730;9.136;2023-04-26T15:52:36;12.00;66.20
31113;DHT22;17763;48.730;9.136;2023-04-26T15:55:07;11.90;66.00
31113;DHT22;17763;48.730;9.136;2023-04-26T15:57:33;11.90;66.90
31113;DHT22;17763;48.730;9.136;2023-04-26T15:59:59;12.00;68.40
31113;DHT22;17763;48.730;9.136;2023-04-26T16:02:25;12.00;66.60
31113;DHT22;17763;48.730;9.136;2023-04-26T16:04:51;12.00;66.10
31113;DHT22;17763;48.730;9.136;2023-04-26T16:07:18;12.20;67.20